Terminal Aerodrome Forecast
Issued by NWS

Home | Current Version | Previous Version | Text Only | Print | Product List | Glossary On
Versions: 1 2 3 4 5 6 7 8 9 10 11 12 13
000
FTUS45 KRIW 102300
TAFCPR
TAF
KCPR 102340Z 1100/1124 03010KT P6SM TSRA SCT070CB BKN100
     FM110200 05009KT P6SM VCTS SCT080CB BKN110
     FM110400 09009KT P6SM SCT110
     FM110800 VRB05KT P6SM SCT100 BKN200
     FM112100 06010KT P6SM VCTS SCT060CB OVC110=

USA.gov is the U.S. government's official web portal to all federal, state and local government web resources and services.